AirNav   Pilot Hours Calculator
 
 1134 users online  

3G5 Dawson Army Airfield
Camp Dawson (Kingwood), West Virginia, USA

GOING TO CAMP DAWSON (KINGWOOD)?


FAA INFORMATION EFFECTIVE 30 DECEMBER 2021

Location

FAA Identifier: 3G5
Lat/Long: 39-27-00.3260N 079-39-59.1980W
39-27.005433N 079-39.986633W
39.4500906,-79.6664439
(estimated)
Elevation: 1265 ft. / 386 m (estimated)
Variation: 07W (1985)
Time zone: UTC -5 (UTC -4 during Daylight Saving Time)
Zip code: 26537

Airport Operations

Airport use: Private use. Permission required prior to landing
Control tower: no
ARTCC: CLEVELAND CENTER
FSS: ELKINS FLIGHT SERVICE STATION [703-724-4288]
NOTAMs facility: EKN (NOTAM-D service available)
Attendance: DAYLIGHT HOURS
Segmented circle: no
Lights: ACTVT REILS RWY 05 & 23; LIRL RWY 05/23 - CTAF. PAPI RWY 05 & 23 OTS.
Beacon: white-green (lighted land airport)
Operates sunset to sunrise.

Airport Communications

CTAF: 122.9
WX ASOS at MGW (16 nm NW): 120.675 (304-296-7103)
WX AWOS-3 at 2G4 (17 nm NE): 120.125 (301-746-8443)

Nearby radio navigation aids

VOR radial/distance  VOR name  Freq  Var
MGWr130/11.0MORGANTOWN VOR/DME111.6005W
CKBr071/30.3CLARKSBURG VOR/DME112.6004W
ESLr299/34.2KESSEL VOR/DME110.8006W
IHDr210/34.5INDIAN HEAD VORTAC108.2006W
EKNr039/37.9ELKINS VORTAC114.2007W

 
NDB name  Hdg/Dist  Freq  Var  ID
RANDOLPH COUNTY022/34.628407WRQY .-. --.- -.--

Airport Services

Fuel available: A++

Runway Information

Runway 5/23

Dimensions: 4500 x 50 ft. / 1372 x 15 m
Surface: asphalt
Runway edge lights: low intensity
RUNWAY 5  RUNWAY 23
Traffic pattern: leftleft
Displaced threshold: 650 ft.350 ft.
Runway end identifier lights: yesyes

Airport Ownership and Management from official FAA records

Ownership: U.S. Army
Owner: US ARMY AERONAUTICAL SVCS AGENCY
FT BELVOIR, VA 22060

Additional Remarks

MOUNTAIN CLOSE ON ALL SIDES OF ARPT.
ARPT CLSD TO ALL FIXED WING ACFT OVER 12500 LBS.
PLINES 2 NM NE & NW.
PPR FROM ADJUTANT GENERAL WV NG FOR CIVIL OPS.
OPEN DALGT HRS.
CRANE 1565 (300 AGL) 1500 E AER 32 UNLGTD.
CLSD TO FIXED WING ACFT EXC PPR 304-791-4953.
FOR CD CTC CLARKSBURG APCH AT 304-842-2011, WHEN APCH CLSD CTC CLEVELAND ARTCC AT 440-774-0226.
FUEL PPR C304-791-4070 A++.

Instrument Procedures

There are no published instrument procedures at 3G5.

Some nearby airports with instrument procedures:

KMGW - Morgantown Municipal Airport-Walter L. Bill Hart Field (16 nm NW)
2G4 - Garrett County Airport (17 nm NE)
4G7 - Fairmont Municipal Airport-Frankman Field (23 nm W)
79D - Philippi/Barbour County Regional Airport (25 nm SW)
KCKB - North Central West Virginia Airport (28 nm W)
 
Loc | Ops | Rwys | IFR | FBO | Links
Com | Nav | Svcs | Stats | Notes
Area around 3G5 (Dawson Army Airfield)
 
Road maps at: MapQuest Bing Google
 
Aerial photo
WARNING: Photo may not be current or correct
Aerial photo of 3G5 (Dawson Army Airfield)
Photo taken 21-Feb-2018
looking southwest

Do you have a better or more recent aerial photo of Dawson Army Airfield that you would like to share? If so, please send us your photo.

 
Sectional chart

 
Airport distance calculator
Flying to Dawson Army Airfield? Find the distance to fly.

From to 3G5

Sunrise and sunset
Times for 23-Jan-2022
 Local
(UTC-5)
 Zulu
(UTC)
Morning civil twilight07:0512:05
Sunrise07:3412:34
Sunset17:2722:27
Evening civil twilight17:5622:56

Current date and time
Zulu (UTC)  23-Jan-2022 16:38:09
Local (UTC-5)  23-Jan-2022 11:38:09
 
METAR
KMGW 
17nm NW 
231553Z 23012G21KT 10SM SCT095 M02/M09 A2989 RMK AO2 SLP135 T10171094
K2G4 
17nm NE 
231615Z AUTO 24010G18KT 10SM CLR M04/M11 A2975 RMK AO1
KCKB 
27nm W 
231553Z 21012KT 10SM CLR M02/M09 A2990 RMK AO2 SLP134 T10171089
KVVS 
31nm N 
231615Z AUTO 21014G20KT 10SM OVC070 M02/M09 A2985 RMK AO2 T10211089
TAF
KMGW 
17nm NW 
231120Z 2312/2412 22006KT P6SM BKN035 FM231800 22007KT 6SM -SN OVC035 FM232000 22007KT 2SM -SN OVC010 FM240400 32010KT 6SM -SN OVC010
NOTAMs
Click for the latest NOTAMs
NOTAMs are issued by the DoD/FAA and will open in a separate window not controlled by AirNav.

 

 
 

Would you like to see your business listed on this page?

 If your business provides an interesting product or service to pilots, flight crews, aircraft, or users of the Dawson Army Airfield, you should consider listing it here.  To start the listing process, click on the button below
 
Add a business
 

Other Pages about Dawson Army Airfield

Update a link
 
Copyright © AirNav, LLC. All rights reserved. Privacy Policy  Contact